createdAt,value
2023-04-26T00:00:53.600Z,13.60
2023-04-26T00:03:20.988Z,13.70
2023-04-26T00:05:49.212Z,13.60
2023-04-26T00:08:16.463Z,13.50
2023-04-26T00:10:43.651Z,13.50
2023-04-26T00:13:11.199Z,13.40
2023-04-26T00:15:38.452Z,13.30
2023-04-26T00:18:06.120Z,13.30
2023-04-26T00:20:34.090Z,13.30
2023-04-26T00:23:01.302Z,13.20
2023-04-26T00:25:28.572Z,13.30
2023-04-26T00:27:56.283Z,13.30
2023-04-26T00:30:23.561Z,13.30
2023-04-26T00:32:50.933Z,13.30
2023-04-26T00:35:18.509Z,13.30
2023-04-26T00:37:46.436Z,13.30
2023-04-26T00:40:16.502Z,13.30
2023-04-26T00:42:43.702Z,13.20
2023-04-26T00:45:11.035Z,13.20
2023-04-26T00:47:38.318Z,13.20
2023-04-26T00:50:08.261Z,13.20
2023-04-26T00:52:36.065Z,13.20
2023-04-26T00:55:03.470Z,13.20
2023-04-26T00:57:30.721Z,13.20
2023-04-26T00:59:58.024Z,13.20
2023-04-26T01:02:26.972Z,13.10
2023-04-26T01:04:54.378Z,13.20
2023-04-26T01:07:21.544Z,13.20
2023-04-26T01:09:50.082Z,13.20
2023-04-26T01:12:17.465Z,13.20
2023-04-26T01:14:46.114Z,13.30
2023-04-26T01:17:13.376Z,13.30
2023-04-26T01:19:48.598Z,13.30
2023-04-26T01:22:16.553Z,13.30
2023-04-26T01:24:46.461Z,13.30
2023-04-26T01:27:13.796Z,13.30
2023-04-26T01:29:41.584Z,13.30
2023-04-26T01:32:08.925Z,13.30
2023-04-26T01:34:37.450Z,13.20
2023-04-26T01:37:04.688Z,13.20
2023-04-26T01:39:31.790Z,13.10
2023-04-26T01:41:59.195Z,13.10
2023-04-26T01:44:26.388Z,13.10
2023-04-26T01:46:53.651Z,13.10
2023-04-26T01:49:20.931Z,13.00
2023-04-26T01:51:48.517Z,13.00
2023-04-26T01:54:15.806Z,13.10
2023-04-26T01:56:43.123Z,13.10
2023-04-26T01:59:10.328Z,13.10
2023-04-26T02:01:37.652Z,13.10
2023-04-26T02:04:06.659Z,13.20
2023-04-26T02:06:33.968Z,13.20
2023-04-26T02:09:01.119Z,13.20
2023-04-26T02:11:28.448Z,13.20
2023-04-26T02:13:55.603Z,13.20
2023-04-26T02:16:23.007Z,13.20
2023-04-26T02:18:50.572Z,13.20
2023-04-26T02:21:18.706Z,13.20
2023-04-26T02:23:46.045Z,13.20
2023-04-26T02:26:15.464Z,13.20
2023-04-26T02:28:43.826Z,13.30
2023-04-26T02:31:11.469Z,13.30
2023-04-26T02:33:38.861Z,13.30
2023-04-26T02:36:07.109Z,13.30
2023-04-26T02:38:36.445Z,13.30
2023-04-26T02:41:05.672Z,13.30
2023-04-26T02:43:33.843Z,13.30
2023-04-26T02:46:01.753Z,13.30
2023-04-26T02:48:31.133Z,13.30
2023-04-26T02:50:58.554Z,13.30
2023-04-26T02:53:25.798Z,13.30
2023-04-26T02:55:53.199Z,13.30
2023-04-26T02:58:20.348Z,13.30
2023-04-26T03:00:48.473Z,13.30
2023-04-26T03:03:17.084Z,13.30
2023-04-26T03:05:46.436Z,13.30
2023-04-26T03:08:14.416Z,13.30
2023-04-26T03:10:42.002Z,13.30
2023-04-26T03:13:09.349Z,13.30
2023-04-26T03:15:36.579Z,13.30
2023-04-26T03:18:03.880Z,13.30
2023-04-26T03:20:31.723Z,13.30
2023-04-26T03:22:59.550Z,13.30
2023-04-26T03:25:26.950Z,13.30
2023-04-26T03:27:55.391Z,13.30
2023-04-26T03:30:23.300Z,13.30
2023-04-26T03:32:50.780Z,13.30
2023-04-26T03:35:18.392Z,13.40
2023-04-26T03:37:45.727Z,13.30
2023-04-26T03:40:17.426Z,13.30
2023-04-26T03:42:46.255Z,13.40
2023-04-26T03:45:13.443Z,13.40
2023-04-26T03:47:40.930Z,13.40
2023-04-26T03:50:08.982Z,13.50
2023-04-26T03:52:36.325Z,13.50
2023-04-26T03:55:03.730Z,13.50
2023-04-26T03:57:31.563Z,13.50
2023-04-26T03:59:58.949Z,13.60
2023-04-26T04:02:26.929Z,13.60
2023-04-26T04:04:54.375Z,13.60
2023-04-26T04:07:21.935Z,13.60
2023-04-26T04:09:49.289Z,13.60
2023-04-26T04:12:16.540Z,13.60
2023-04-26T04:14:44.458Z,13.60
2023-04-26T04:17:12.163Z,13.60
2023-04-26T04:19:39.690Z,13.60
2023-04-26T04:22:07.128Z,13.60
2023-04-26T04:24:34.871Z,13.60
2023-04-26T04:27:03.466Z,13.60
2023-04-26T04:29:32.841Z,13.50
2023-04-26T04:32:00.245Z,13.60
2023-04-26T04:34:28.358Z,13.50
2023-04-26T04:36:55.574Z,13.60
2023-04-26T04:39:23.603Z,13.60
2023-04-26T04:41:51.428Z,13.70
2023-04-26T04:44:19.760Z,13.70
2023-04-26T04:46:48.282Z,13.70
2023-04-26T04:49:16.089Z,13.60
2023-04-26T04:51:43.744Z,13.60
2023-04-26T04:54:13.810Z,13.60
2023-04-26T04:56:41.352Z,13.70
2023-04-26T04:59:08.873Z,13.70
2023-04-26T05:01:37.652Z,13.80
2023-04-26T05:04:09.190Z,13.80
2023-04-26T05:06:36.649Z,13.80
2023-04-26T05:09:05.959Z,13.70
2023-04-26T05:11:33.812Z,13.70
2023-04-26T05:14:02.498Z,13.70
2023-04-26T05:16:31.010Z,13.70
2023-04-26T05:19:00.139Z,13.70
2023-04-26T05:21:27.488Z,13.70
2023-04-26T05:23:55.041Z,13.70
2023-04-26T05:26:22.542Z,13.70
2023-04-26T05:28:51.289Z,13.80
2023-04-26T05:31:20.186Z,13.80
2023-04-26T05:33:48.903Z,13.80
2023-04-26T05:36:19.675Z,13.90
2023-04-26T05:38:46.894Z,13.90
2023-04-26T05:41:14.934Z,14.00
2023-04-26T05:43:42.052Z,14.10
2023-04-26T05:46:09.510Z,14.10
2023-04-26T05:48:36.781Z,14.20
2023-04-26T05:51:04.175Z,14.20
2023-04-26T05:53:31.688Z,14.20
2023-04-26T05:55:59.532Z,14.20
2023-04-26T05:58:26.970Z,14.20
2023-04-26T06:00:56.907Z,14.30
2023-04-26T06:03:24.896Z,14.30
2023-04-26T06:05:53.047Z,14.30
2023-04-26T06:08:22.646Z,14.30
2023-04-26T06:10:50.644Z,14.40
2023-04-26T06:13:17.995Z,14.40
2023-04-26T06:15:45.573Z,14.40
2023-04-26T06:18:12.949Z,14.40
2023-04-26T06:20:40.472Z,14.40
2023-04-26T06:23:08.129Z,14.50
2023-04-26T06:25:37.330Z,14.50
2023-04-26T06:28:05.175Z,14.50
2023-04-26T06:30:32.723Z,14.60
2023-04-26T06:33:01.187Z,14.70
2023-04-26T06:35:31.569Z,14.70
2023-04-26T06:37:59.579Z,14.70
2023-04-26T06:40:27.845Z,14.80
2023-04-26T06:42:55.682Z,14.80
2023-04-26T06:45:36.479Z,14.80
2023-04-26T06:48:05.058Z,14.80
2023-04-26T06:50:33.463Z,14.80
2023-04-26T06:53:00.976Z,14.80
2023-04-26T06:55:28.225Z,14.80
2023-04-26T06:57:57.176Z,14.80
2023-04-26T07:00:24.709Z,14.90
2023-04-26T07:02:52.177Z,14.90
2023-04-26T07:05:19.715Z,14.90
2023-04-26T07:07:47.379Z,15.00
2023-04-26T07:10:14.821Z,15.00
2023-04-26T07:12:42.203Z,15.10
2023-04-26T07:15:10.684Z,15.20
2023-04-26T07:17:38.138Z,15.30
2023-04-26T07:20:06.376Z,15.30
2023-04-26T07:22:33.916Z,15.40
2023-04-26T07:25:01.203Z,15.40
2023-04-26T07:27:28.565Z,15.50
2023-04-26T07:29:56.432Z,15.50
2023-04-26T07:32:23.960Z,15.50
2023-04-26T07:34:51.368Z,15.50
2023-04-26T07:37:18.944Z,15.60
2023-04-26T07:39:46.209Z,15.50
2023-04-26T07:42:13.579Z,15.50
2023-04-26T07:44:41.084Z,15.50
2023-04-26T07:47:15.841Z,15.60
2023-04-26T07:49:44.045Z,15.70
2023-04-26T07:52:12.668Z,15.80
2023-04-26T07:54:40.605Z,15.80
2023-04-26T07:57:08.021Z,15.80
2023-04-26T07:59:35.397Z,15.90
2023-04-26T08:02:02.752Z,15.90
2023-04-26T08:04:33.857Z,15.90
2023-04-26T08:07:02.365Z,15.80
2023-04-26T08:09:30.845Z,15.90
2023-04-26T08:11:58.682Z,15.90
2023-04-26T08:14:25.996Z,15.90
2023-04-26T08:16:53.796Z,16.00
2023-04-26T08:19:21.635Z,16.00
2023-04-26T08:21:49.065Z,16.00
2023-04-26T08:24:16.359Z,16.00
2023-04-26T08:26:43.825Z,15.90
2023-04-26T08:29:11.186Z,15.90
2023-04-26T08:34:06.507Z,16.00
2023-04-26T08:36:37.724Z,16.00
2023-04-26T08:39:05.249Z,16.10
2023-04-26T08:41:37.773Z,16.10
2023-04-26T08:44:06.432Z,16.00
2023-04-26T08:46:43.858Z,16.00
2023-04-26T08:49:27.724Z,16.00
2023-04-26T08:51:57.116Z,16.10
2023-04-26T08:54:26.116Z,16.10
2023-04-26T08:56:55.938Z,16.10
2023-04-26T08:59:23.897Z,16.10
2023-04-26T09:01:52.108Z,16.10
2023-04-26T09:04:19.763Z,16.00
2023-04-26T09:06:48.946Z,16.00
2023-04-26T09:09:20.330Z,15.90
2023-04-26T09:11:50.795Z,16.00
2023-04-26T09:14:18.312Z,16.00
2023-04-26T09:16:45.740Z,16.00
2023-04-26T09:19:13.138Z,16.00
2023-04-26T09:21:43.684Z,16.00
2023-04-26T09:24:11.534Z,16.00
2023-04-26T09:26:39.223Z,16.00
2023-04-26T09:29:21.434Z,16.10
2023-04-26T09:31:50.356Z,16.00
2023-04-26T09:34:17.841Z,16.10
2023-04-26T09:36:51.928Z,16.20
2023-04-26T09:39:22.543Z,16.30
2023-04-26T09:41:49.892Z,16.50
2023-04-26T09:44:20.352Z,16.60
2023-04-26T09:47:00.329Z,16.60
2023-04-26T09:49:29.242Z,16.60
2023-04-26T09:51:59.651Z,16.60
2023-04-26T09:54:30.355Z,16.60
2023-04-26T09:56:59.977Z,16.70
2023-04-26T09:59:41.479Z,16.70
2023-04-26T10:02:12.889Z,16.70
2023-04-26T10:04:40.628Z,16.70
2023-04-26T10:07:08.008Z,16.70
2023-04-26T10:09:35.770Z,16.70
2023-04-26T10:12:03.501Z,16.70
2023-04-26T10:14:31.491Z,16.80
2023-04-26T10:16:58.987Z,16.80
2023-04-26T10:19:26.722Z,16.80
2023-04-26T10:21:58.247Z,16.80
2023-04-26T10:24:26.673Z,16.80
2023-04-26T10:26:56.941Z,16.80
2023-04-26T10:29:26.348Z,16.80
2023-04-26T10:31:56.786Z,16.70
2023-04-26T10:34:24.195Z,16.70
2023-04-26T10:36:54.571Z,16.70
2023-04-26T10:39:22.324Z,16.70
2023-04-26T10:41:49.734Z,16.60
2023-04-26T10:44:20.455Z,16.60
2023-04-26T10:46:52.853Z,16.60
2023-04-26T10:49:26.274Z,16.60
2023-04-26T10:51:57.098Z,16.70
2023-04-26T10:54:24.669Z,16.60
2023-04-26T10:56:52.247Z,16.80
2023-04-26T10:59:39.869Z,16.90
2023-04-26T11:02:11.321Z,16.90
2023-04-26T11:04:53.736Z,17.00
2023-04-26T11:07:24.779Z,17.00
2023-04-26T11:09:52.988Z,17.00
2023-04-26T11:12:22.766Z,16.80
2023-04-26T11:14:50.208Z,16.80
2023-04-26T11:17:17.684Z,16.70
2023-04-26T11:19:48.216Z,16.60
2023-04-26T11:22:15.897Z,16.70
2023-04-26T11:24:43.502Z,16.70
2023-04-26T11:27:12.223Z,16.80
2023-04-26T11:29:40.336Z,16.80
2023-04-26T11:32:08.307Z,16.70
2023-04-26T11:34:38.343Z,16.80
2023-04-26T11:37:07.276Z,16.80
2023-04-26T11:39:35.714Z,16.80
2023-04-26T11:42:06.438Z,16.90
2023-04-26T11:44:34.538Z,16.90
2023-04-26T11:47:04.490Z,16.90
2023-04-26T11:49:33.016Z,16.80
2023-04-26T11:52:01.780Z,16.80
2023-04-26T11:54:32.033Z,16.80
2023-04-26T11:56:59.617Z,16.70
2023-04-26T11:59:29.435Z,16.80
2023-04-26T12:01:58.425Z,16.70
2023-04-26T12:04:30.376Z,16.60
2023-04-26T12:06:58.735Z,16.70
2023-04-26T12:09:28.778Z,16.70
2023-04-26T12:11:59.301Z,16.70
2023-04-26T12:14:34.546Z,16.80
2023-04-26T12:17:03.615Z,16.80
2023-04-26T12:19:33.301Z,16.80
2023-04-26T12:22:00.734Z,16.90
2023-04-26T12:24:30.682Z,16.90
2023-04-26T12:27:00.188Z,17.00
2023-04-26T12:29:30.856Z,17.00
2023-04-26T12:31:59.319Z,17.00
2023-04-26T12:34:26.723Z,17.00
2023-04-26T12:36:55.205Z,17.10
2023-04-26T12:39:22.510Z,17.00
2023-04-26T12:41:49.964Z,17.00
2023-04-26T12:44:19.583Z,17.00
2023-04-26T12:46:48.950Z,17.00
2023-04-26T12:49:16.264Z,17.00
2023-04-26T12:51:43.836Z,17.10
2023-04-26T12:54:11.292Z,17.10
2023-04-26T12:56:44.116Z,17.10
2023-04-26T12:59:11.626Z,17.10
2023-04-26T13:01:38.959Z,17.30
2023-04-26T13:04:06.862Z,17.30
2023-04-26T13:06:35.446Z,17.30
2023-04-26T13:09:02.988Z,17.40
2023-04-26T13:11:30.317Z,17.40
2023-04-26T13:13:57.980Z,17.40
2023-04-26T13:16:25.621Z,17.40
2023-04-26T13:18:53.003Z,17.50
2023-04-26T13:21:20.376Z,17.60
2023-04-26T13:23:47.727Z,17.70
2023-04-26T13:26:17.642Z,17.90
2023-04-26T13:28:45.104Z,17.90
2023-04-26T13:31:12.582Z,17.90
2023-04-26T13:33:40.013Z,17.80
2023-04-26T13:36:07.629Z,17.80
2023-04-26T13:38:35.054Z,17.70
2023-04-26T13:41:03.131Z,17.60
2023-04-26T13:43:30.568Z,17.60
2023-04-26T13:45:57.952Z,17.60
2023-04-26T13:48:25.386Z,17.50
2023-04-26T13:50:52.905Z,17.50
2023-04-26T13:53:20.300Z,17.30
2023-04-26T13:55:48.095Z,17.30
2023-04-26T13:58:15.906Z,17.20
2023-04-26T14:00:43.394Z,17.10
2023-04-26T14:03:10.937Z,17.10
2023-04-26T14:05:38.369Z,17.10
2023-04-26T14:08:06.125Z,17.00
2023-04-26T14:10:33.458Z,17.00
2023-04-26T14:13:00.955Z,17.00
2023-04-26T14:15:28.314Z,17.00
2023-04-26T14:17:56.496Z,16.90
2023-04-26T14:20:23.945Z,17.00
2023-04-26T14:22:51.376Z,17.00
2023-04-26T14:25:19.076Z,17.00
2023-04-26T14:27:46.508Z,17.00
2023-04-26T14:30:14.288Z,17.10
2023-04-26T14:32:41.939Z,17.10
2023-04-26T14:35:09.642Z,17.10
2023-04-26T14:37:37.132Z,17.10
2023-04-26T14:40:06.333Z,17.10
2023-04-26T14:42:34.027Z,17.10
2023-04-26T14:45:01.389Z,17.10
2023-04-26T14:47:29.668Z,17.10
2023-04-26T14:49:57.897Z,17.20
2023-04-26T14:52:28.178Z,17.20
2023-04-26T14:54:55.475Z,17.30
2023-04-26T14:57:23.134Z,17.30
2023-04-26T14:59:50.546Z,17.40
2023-04-26T15:02:18.048Z,17.30
2023-04-26T15:04:45.673Z,17.40
2023-04-26T15:07:24.900Z,17.40
2023-04-26T15:09:58.636Z,17.40
2023-04-26T15:12:26.047Z,17.50
2023-04-26T15:14:53.629Z,17.50
2023-04-26T15:17:21.016Z,17.50
2023-04-26T15:19:48.435Z,17.60
2023-04-26T15:22:15.994Z,17.60
2023-04-26T15:24:44.001Z,17.70
2023-04-26T15:27:11.483Z,17.70
2023-04-26T15:29:38.743Z,17.70
2023-04-26T15:32:06.381Z,17.60
2023-04-26T15:34:43.872Z,17.60
2023-04-26T15:37:11.978Z,17.50
2023-04-26T15:39:39.357Z,17.50
2023-04-26T15:42:06.943Z,17.60
2023-04-26T15:44:34.343Z,17.70
2023-04-26T15:47:02.603Z,17.70
2023-04-26T15:49:30.287Z,17.80
2023-04-26T15:51:57.852Z,17.90
2023-04-26T15:54:26.575Z,17.90
2023-04-26T15:56:55.392Z,17.90
2023-04-26T15:59:22.813Z,17.90
2023-04-26T16:01:50.253Z,17.90
2023-04-26T16:04:17.574Z,17.90
2023-04-26T16:06:45.085Z,17.90
2023-04-26T16:09:24.871Z,17.90
2023-04-26T16:11:53.387Z,17.90
2023-04-26T16:14:20.834Z,17.90
2023-04-26T16:16:48.280Z,17.90
2023-04-26T16:19:17.517Z,17.90
2023-04-26T16:21:45.001Z,17.90
2023-04-26T16:24:12.505Z,17.90
2023-04-26T16:26:40.032Z,17.90
2023-04-26T16:29:07.316Z,17.90
2023-04-26T16:31:34.911Z,17.90
2023-04-26T16:34:02.491Z,17.90
2023-04-26T16:36:29.927Z,17.90
2023-04-26T16:38:57.153Z,17.90
2023-04-26T16:41:26.859Z,17.90
2023-04-26T16:43:55.175Z,17.80
2023-04-26T16:46:22.672Z,17.80
2023-04-26T16:48:50.115Z,17.70
2023-04-26T16:51:17.530Z,17.70
2023-04-26T16:53:44.790Z,17.80
2023-04-26T16:56:12.156Z,17.80
2023-04-26T16:58:39.446Z,17.80
2023-04-26T17:01:06.952Z,17.70
2023-04-26T17:03:34.446Z,17.70
2023-04-26T17:06:01.945Z,17.80
2023-04-26T17:08:29.355Z,17.70
2023-04-26T17:10:57.057Z,17.60
2023-04-26T17:13:29.507Z,17.60
2023-04-26T17:15:57.261Z,17.60
2023-04-26T17:18:24.774Z,17.60
2023-04-26T17:20:53.853Z,17.60
2023-04-26T17:23:21.261Z,17.70
2023-04-26T17:25:48.899Z,17.70
2023-04-26T17:28:16.595Z,17.70
2023-04-26T17:30:44.032Z,17.70
2023-04-26T17:33:11.679Z,17.70
2023-04-26T17:35:39.116Z,17.60
2023-04-26T17:38:06.396Z,17.60
2023-04-26T17:40:33.861Z,17.60
2023-04-26T17:43:01.487Z,17.60
2023-04-26T17:45:28.993Z,17.60
2023-04-26T17:47:56.411Z,17.60
2023-04-26T17:50:24.094Z,17.50
2023-04-26T17:52:51.503Z,17.50
2023-04-26T17:55:19.023Z,17.50
2023-04-26T17:57:46.890Z,17.60
2023-04-26T18:00:15.073Z,17.60
2023-04-26T18:02:44.290Z,17.60
2023-04-26T18:05:12.040Z,17.50
2023-04-26T18:07:39.381Z,17.50
2023-04-26T18:10:07.417Z,17.50
2023-04-26T18:12:35.523Z,17.50
2023-04-26T18:15:03.053Z,17.50
2023-04-26T18:17:30.637Z,17.50
2023-04-26T18:19:58.063Z,17.50
2023-04-26T18:22:25.440Z,17.50
2023-04-26T18:24:52.875Z,17.50
2023-04-26T18:27:20.164Z,17.50
2023-04-26T18:29:49.320Z,17.60
2023-04-26T18:32:16.959Z,17.50
2023-04-26T18:34:44.404Z,17.50
2023-04-26T18:37:11.725Z,17.50
2023-04-26T18:39:39.182Z,17.50
2023-04-26T18:42:06.592Z,17.60
2023-04-26T18:44:33.911Z,17.60
2023-04-26T18:47:01.324Z,17.50
2023-04-26T18:49:28.903Z,17.50
2023-04-26T18:51:57.362Z,17.50
2023-04-26T18:54:26.483Z,17.50
2023-04-26T18:56:54.288Z,17.50
2023-04-26T18:59:21.763Z,17.40
2023-04-26T19:01:49.454Z,17.40
2023-04-26T19:04:17.230Z,17.40
2023-04-26T19:06:44.584Z,17.30
2023-04-26T19:09:12.019Z,17.30
2023-04-26T19:11:40.293Z,17.30
2023-04-26T19:14:07.551Z,17.30
2023-04-26T19:16:35.769Z,17.30
2023-04-26T19:19:03.360Z,17.20
2023-04-26T19:21:31.512Z,17.30
2023-04-26T19:23:58.770Z,17.30
2023-04-26T19:26:25.916Z,17.30
2023-04-26T19:28:55.566Z,17.30
2023-04-26T19:31:22.921Z,17.30
2023-04-26T19:33:50.270Z,17.30
2023-04-26T19:36:17.456Z,17.30
2023-04-26T19:38:44.860Z,17.30
2023-04-26T19:41:12.029Z,17.30
2023-04-26T19:43:39.330Z,17.20
2023-04-26T19:46:09.640Z,17.10
2023-04-26T19:48:36.951Z,17.10
2023-04-26T19:51:04.191Z,17.10
2023-04-26T19:53:32.077Z,17.10
2023-04-26T19:55:59.340Z,17.10
2023-04-26T19:58:26.867Z,17.00
2023-04-26T20:00:54.088Z,17.00
2023-04-26T20:03:21.413Z,17.00
2023-04-26T20:05:49.598Z,16.90
2023-04-26T20:08:17.033Z,16.80
2023-04-26T20:10:44.202Z,16.70
2023-04-26T20:13:11.605Z,16.70
2023-04-26T20:15:38.873Z,16.60
2023-04-26T20:18:06.453Z,16.50
2023-04-26T20:20:33.722Z,16.40
2023-04-26T20:23:01.233Z,16.40
2023-04-26T20:25:28.434Z,16.40
2023-04-26T20:27:56.901Z,16.40
2023-04-26T20:30:24.215Z,16.30
2023-04-26T20:32:51.495Z,16.30
2023-04-26T20:35:18.720Z,16.10
2023-04-26T20:37:46.073Z,16.10
2023-04-26T20:40:13.201Z,16.10
2023-04-26T20:42:40.860Z,16.00
2023-04-26T20:45:09.083Z,16.00
2023-04-26T20:47:37.144Z,16.10
2023-04-26T20:50:05.766Z,16.10
2023-04-26T20:52:33.093Z,16.10
2023-04-26T20:55:00.444Z,16.10
2023-04-26T20:57:27.728Z,16.10
2023-04-26T20:59:54.953Z,16.10
2023-04-26T21:02:22.384Z,16.20
2023-04-26T21:04:49.721Z,16.10
2023-04-26T21:07:17.239Z,16.10
2023-04-26T21:09:44.372Z,15.90
2023-04-26T21:12:11.604Z,15.80
2023-04-26T21:14:38.829Z,15.70
2023-04-26T21:17:06.144Z,15.70
2023-04-26T21:19:33.303Z,15.60
2023-04-26T21:22:00.592Z,15.50
2023-04-26T21:24:27.747Z,15.60
2023-04-26T21:26:55.037Z,15.70
2023-04-26T21:29:22.264Z,15.70
2023-04-26T21:31:49.729Z,15.70
2023-04-26T21:34:17.666Z,15.70
2023-04-26T21:36:45.082Z,15.70
2023-04-26T21:39:12.427Z,15.80
2023-04-26T21:41:40.156Z,15.90
2023-04-26T21:44:07.456Z,15.90
2023-04-26T21:46:34.940Z,15.90
2023-04-26T21:49:02.122Z,15.90
2023-04-26T21:51:29.501Z,15.90
2023-04-26T21:53:56.745Z,16.00
2023-04-26T21:56:24.213Z,16.00
2023-04-26T21:58:51.449Z,16.00
2023-04-26T22:01:18.796Z,16.00
2023-04-26T22:03:46.183Z,16.00
2023-04-26T22:06:13.564Z,16.00
2023-04-26T22:08:41.305Z,16.00
2023-04-26T22:11:08.576Z,16.00
2023-04-26T22:13:35.955Z,16.00
2023-04-26T22:16:03.349Z,16.00
2023-04-26T22:18:30.577Z,16.00
2023-04-26T22:20:57.863Z,16.00
2023-04-26T22:23:25.093Z,16.00
2023-04-26T22:25:52.505Z,16.00
2023-04-26T22:28:19.726Z,15.90
2023-04-26T22:30:47.246Z,15.90
2023-04-26T22:33:14.395Z,15.90
2023-04-26T22:35:41.786Z,15.80
2023-04-26T22:38:08.915Z,15.80
2023-04-26T22:40:36.433Z,15.80
2023-04-26T22:43:03.719Z,15.70
2023-04-26T22:45:31.012Z,15.70
2023-04-26T22:47:58.626Z,15.70
2023-04-26T22:50:26.097Z,15.60
2023-04-26T22:52:53.225Z,15.60
2023-04-26T22:55:20.694Z,15.60
2023-04-26T22:57:47.982Z,15.50
2023-04-26T23:00:16.014Z,15.50
2023-04-26T23:02:43.385Z,15.30
2023-04-26T23:05:11.202Z,15.30
2023-04-26T23:07:39.758Z,15.20
2023-04-26T23:10:07.518Z,15.20
2023-04-26T23:12:36.193Z,15.10
2023-04-26T23:15:05.361Z,14.90
2023-04-26T23:17:34.163Z,14.70
2023-04-26T23:20:02.177Z,14.60
2023-04-26T23:22:29.411Z,14.60
2023-04-26T23:24:56.816Z,14.60
2023-04-26T23:27:25.145Z,14.70
2023-04-26T23:29:52.402Z,14.70
2023-04-26T23:32:19.571Z,14.70
2023-04-26T23:34:47.064Z,14.80
2023-04-26T23:37:14.235Z,14.80
2023-04-26T23:39:41.555Z,14.90
2023-04-26T23:42:08.911Z,14.90
2023-04-26T23:44:36.268Z,14.90
2023-04-26T23:47:03.444Z,14.80
2023-04-26T23:49:30.934Z,14.70
2023-04-26T23:51:58.090Z,14.60
2023-04-26T23:54:25.454Z,14.50
2023-04-26T23:56:52.660Z,14.50
2023-04-26T23:59:21.815Z,14.40
